Time;durP1;ratioP1;P1;durP2;ratioP2;P2;SDS_P1;SDS_P2;PMS_P1;PMS_P2;Temp;Humidity;BMP_temperature;BMP_pressure;BME280_temperature;BME280_humidity;BME280_pressure;Samples;Min_cycle;Max_cycle;Signal;HPM_P1;HPM_P2
2022/04/07 04:12:06;;;;;;;15.73;10.18;;;;;;;7.25;83.68;98718.03;5557674;32;183271;-87
2022/04/07 04:15:10;;;;;;;13.73;8.73;;;;;;;7.23;83.70;98730.50;5543998;32;33549;-87
2022/04/07 04:18:13;;;;;;;15.00;10.10;;;;;;;7.25;83.44;98723.31;5544073;32;33871;-87
2022/04/07 04:21:16;;;;;;;12.88;9.43;;;;;;;7.38;82.80;98720.78;5549750;32;33962;-88
2022/04/07 04:24:19;;;;;;;15.40;9.88;;;;;;;7.44;82.19;98719.53;5544390;32;33570;-87
2022/04/07 04:27:22;;;;;;;13.65;10.23;;;;;;;7.50;81.69;98720.94;5542742;32;32352;-87
2022/04/07 04:30:25;;;;;;;14.00;9.23;;;;;;;7.57;81.44;98719.59;5543516;32;33554;-88
2022/04/07 04:33:28;;;;;;;13.00;8.68;;;;;;;7.73;79.68;98714.19;5544877;32;33934;-87
2022/04/07 04:36:34;;;;;;;12.60;8.82;;;;;;;7.84;78.92;98720.56;5546522;32;33891;-88
2022/04/07 04:39:37;;;;;;;16.30;9.05;;;;;;;7.89;78.57;98724.59;5543313;32;34524;-87
2022/04/07 04:42:41;;;;;;;14.52;9.20;;;;;;;8.05;77.62;98718.31;5543923;32;33841;-87
2022/04/07 04:45:44;;;;;;;20.48;10.52;;;;;;;8.09;77.63;98717.16;5543894;32;33610;-87
2022/04/07 04:48:46;;;;;;;16.10;10.18;;;;;;;8.07;78.38;98717.28;5543050;32;34019;-87
2022/04/07 04:51:49;;;;;;;14.20;9.10;;;;;;;8.08;79.00;98726.88;5544153;32;34813;-88
2022/04/07 04:54:52;;;;;;;14.20;8.93;;;;;;;8.13;79.04;98723.94;5547078;32;34508;-87
2022/04/07 04:57:55;;;;;;;13.05;9.23;;;;;;;8.14;78.06;98722.16;5551118;32;34242;-87
2022/04/07 05:00:58;;;;;;;16.08;9.48;;;;;;;8.15;78.09;98715.91;5550085;32;34054;-87
2022/04/07 05:04:01;;;;;;;15.05;9.50;;;;;;;8.21;77.66;98712.84;5543892;32;34205;-88
2022/04/07 05:07:04;;;;;;;11.93;9.32;;;;;;;8.27;77.75;98715.09;5543462;32;35046;-88
2022/04/07 05:10:07;;;;;;;11.75;9.15;;;;;;;8.30;77.57;98714.03;5552213;32;34355;-87
2022/04/07 05:13:10;;;;;;;14.82;9.45;;;;;;;8.31;77.67;98713.09;5556599;32;35007;-88
2022/04/07 05:16:15;;;;;;;13.43;8.98;;;;;;;8.34;77.77;98719.00;5545784;32;34189;-87
2022/04/07 05:19:18;;;;;;;10.90;8.50;;;;;;;8.41;76.74;98722.09;5543972;32;33946;-88
2022/04/07 05:22:21;;;;;;;12.75;8.50;;;;;;;8.54;76.46;98721.31;5535134;32;34017;-88
2022/04/07 05:25:24;;;;;;;13.20;8.48;;;;;;;8.62;75.94;98726.91;5530864;32;33771;-88
2022/04/07 05:28:26;;;;;;;16.20;9.18;;;;;;;8.71;75.90;98714.84;5529961;32;33880;-88
2022/04/07 05:31:29;;;;;;;13.57;9.32;;;;;;;8.75;76.31;98719.81;5529934;32;34471;-88
2022/04/07 05:34:50;;;;;;;12.82;9.18;;;;;;;8.83;75.90;98721.06;5527259;32;33810;-88
2022/04/07 05:38:01;;;;;;;13.55;9.07;;;;;;;8.98;75.77;98721.81;5529261;32;34812;-88
2022/04/07 05:41:04;;;;;;;15.30;8.98;;;;;;;9.16;74.78;98719.69;5522729;32;32678;-87
2022/04/07 05:44:07;;;;;;;16.00;9.02;;;;;;;9.29;73.56;98735.53;5530683;32;33947;-88
2022/04/07 05:47:10;;;;;;;13.68;9.10;;;;;;;9.44;73.32;98737.09;5530033;32;33754;-87
2022/04/07 05:50:12;;;;;;;14.07;8.60;;;;;;;9.50;72.94;98732.34;5530758;32;34510;-88
2022/04/07 05:53:16;;;;;;;15.80;9.40;;;;;;;9.53;72.03;98740.91;5528223;32;34194;-88
2022/04/07 05:56:18;;;;;;;10.73;8.25;;;;;;;9.54;71.89;98736.44;5518957;32;34687;-87
2022/04/07 05:59:21;;;;;;;12.27;8.55;;;;;;;9.55;70.64;98728.37;5522393;32;33934;-87
2022/04/07 06:02:24;;;;;;;15.63;9.02;;;;;;;9.78;70.26;98733.81;5517512;32;34994;-90
2022/04/07 06:05:26;;;;;;;13.70;8.90;;;;;;;9.79;70.55;98727.56;5531799;32;34092;-89
2022/04/07 06:08:29;;;;;;;11.27;8.32;;;;;;;9.82;70.16;98734.44;5526296;32;32722;-90
2022/04/07 06:11:32;;;;;;;12.85;9.23;;;;;;;9.83;69.77;98741.44;5522154;32;34138;-89
2022/04/07 06:14:35;;;;;;;11.20;8.35;;;;;;;10.12;68.30;98738.44;5533298;32;34121;-89
2022/04/07 06:17:40;;;;;;;13.65;8.65;;;;;;;10.21;68.06;98734.28;5524653;32;33978;-89
2022/04/07 06:20:42;;;;;;;11.50;8.75;;;;;;;10.32;67.05;98736.94;5514905;32;34633;-88
2022/04/07 06:23:46;;;;;;;14.52;9.93;;;;;;;10.60;66.40;98737.53;5521426;32;33960;-90
2022/04/07 06:26:49;;;;;;;14.48;8.70;;;;;;;10.95;65.43;98745.56;5522616;32;33377;-90
2022/04/07 06:29:54;;;;;;;12.82;8.70;;;;;;;11.03;64.58;98746.62;5513739;32;35236;-90
2022/04/07 06:33:07;;;;;;;9.65;8.23;;;;;;;11.13;64.38;98754.75;5559023;26;32987;-91
2022/04/07 06:39:49;;;;;;;12.60;9.68;;;;;;;11.35;63.51;98768.97;5571958;32;20115;-91
2022/04/07 07:05:32;;;;;;;12.27;9.65;;;;;;;11.77;61.55;98791.41;4966543;29;20102;-89
2022/04/07 07:08:35;;;;;;;13.88;9.20;;;;;;;11.53;63.43;98785.28;5569869;32;34692;-88
2022/04/07 07:11:38;;;;;;;12.95;9.80;;;;;;;11.62;62.70;98793.47;5568360;32;32568;-89
2022/04/07 07:14:41;;;;;;;13.75;9.88;;;;;;;11.52;64.19;98802.16;5558348;32;33831;-89
2022/04/07 07:17:43;;;;;;;16.12;10.15;;;;;;;11.52;64.18;98796.84;5550557;32;33876;-89
2022/04/07 07:20:47;;;;;;;14.70;9.93;;;;;;;11.72;63.46;98805.06;5556573;32;33230;-89
2022/04/07 07:23:50;;;;;;;14.98;9.85;;;;;;;11.69;63.07;98803.50;5549858;32;34084;-89
2022/04/07 07:26:52;;;;;;;16.65;10.73;;;;;;;11.45;63.67;98793.00;5551525;32;32525;-89
2022/04/07 07:29:55;;;;;;;19.98;10.07;;;;;;;11.51;64.32;98804.94;5549959;32;32578;-89
2022/04/07 07:32:58;;;;;;;20.25;10.88;;;;;;;11.71;63.74;98798.03;5557519;32;34145;-90
2022/04/07 07:36:01;;;;;;;15.55;9.90;;;;;;;11.86;63.50;98785.34;5564925;32;35297;-90
2022/04/07 07:39:04;;;;;;;17.25;10.77;;;;;;;11.92;62.59;98794.63;5560864;31;34000;-89
2022/04/07 07:42:07;;;;;;;16.10;10.27;;;;;;;12.06;62.55;98801.53;5560155;31;34010;-89
2022/04/07 07:45:10;;;;;;;15.55;10.15;;;;;;;11.75;62.43;98802.16;5573676;31;34259;-90
2022/04/07 07:48:13;;;;;;;15.98;10.10;;;;;;;11.92;62.70;98800.78;5568198;31;32884;-91
2022/04/07 07:51:16;;;;;;;17.12;9.93;;;;;;;11.97;62.67;98811.06;5575300;31;33907;-90
2022/04/07 08:05:16;;;;;;;12.65;8.35;;;;;;;12.24;60.83;98815.97;5567336;32;33035;-90
2022/04/07 08:08:19;;;;;;;11.07;8.32;;;;;;;12.45;59.82;98811.66;5610995;26;34591;-88
2022/04/07 08:11:22;;;;;;;11.85;8.30;;;;;;;12.43;59.76;98814.47;5574455;32;34535;-89
2022/04/07 08:14:25;;;;;;;12.45;8.45;;;;;;;12.37;60.03;98814.97;5556499;32;32704;-88
2022/04/07 08:17:28;;;;;;;13.07;8.60;;;;;;;12.59;58.95;98814.03;5571104;32;33903;-88
2022/04/07 08:28:02;;;;;;;18.48;9.20;;;;;;;13.15;58.10;98819.16;4784621;26;20085;-89
2022/04/07 08:31:06;;;;;;;14.55;8.70;;;;;;;12.88;58.34;98829.34;5536614;32;32472;-91
2022/04/07 08:34:09;;;;;;;13.90;9.45;;;;;;;12.77;59.32;98834.75;5544072;32;34776;-86
2022/04/07 08:40:52;;;;;;;14.15;9.55;;;;;;;12.72;59.93;98842.28;5273574;30;20104;-88
2022/04/07 08:43:58;;;;;;;15.02;9.48;;;;;;;12.80;60.07;98835.34;5527008;32;32358;-87
2022/04/07 08:47:05;;;;;;;17.98;9.57;;;;;;;13.05;59.25;98819.97;5543150;32;33824;-88
2022/04/07 08:50:12;;;;;;;11.48;9.10;;;;;;;13.30;58.56;98815.19;5535166;32;33156;-90
2022/04/07 08:53:15;;;;;;;12.25;8.75;;;;;;;13.38;58.49;98827.81;5537363;32;34633;-92
2022/04/07 08:59:51;;;;;;;10.20;8.52;;;;;;;13.56;56.31;98812.09;5559035;32;32393;-90
2022/04/07 09:02:55;;;;;;;12.05;8.15;;;;;;;13.47;55.65;98804.91;5572933;31;34047;-92
2022/04/07 09:20:51;;;;;;;9.60;7.70;;;;;;;15.48;50.76;98798.38;2365402;26;20098;-89
2022/04/07 09:31:13;;;;;;;18.77;7.68;;;;;;;15.83;51.43;98782.56;5533307;32;33438;-88
2022/04/07 09:34:29;;;;;;;10.30;7.82;;;;;;;16.52;48.65;98789.31;5529407;32;35211;-86
2022/04/07 09:37:46;;;;;;;13.10;7.75;;;;;;;16.79;49.32;98782.19;5538878;32;34007;-86
2022/04/07 09:40:49;;;;;;;9.57;7.53;;;;;;;17.21;46.56;98786.81;5531191;32;33962;-86
2022/04/07 09:43:58;;;;;;;10.02;6.85;;;;;;;16.64;47.34;98776.53;5519936;32;34038;-89
2022/04/07 09:47:11;;;;;;;11.02;7.28;;;;;;;16.73;47.73;98775.59;5521969;32;35012;-86
2022/04/07 09:50:22;;;;;;;10.30;6.97;;;;;;;16.60;47.96;98775.97;5527626;32;32624;-85
2022/04/07 09:53:27;;;;;;;12.60;7.47;;;;;;;16.39;46.70;98779.00;5528524;32;33962;-86
2022/04/07 09:56:30;;;;;;;10.63;6.70;;;;;;;15.98;46.80;98774.06;5521742;32;32727;-85
2022/04/07 09:59:33;;;;;;;9.80;6.37;;;;;;;16.28;48.65;98778.22;5525118;32;33416;-84
2022/04/07 10:02:37;;;;;;;11.90;6.95;;;;;;;16.83;45.51;98776.34;5507574;32;33300;-85
2022/04/07 10:05:41;;;;;;;9.23;7.40;;;;;;;16.72;45.62;98768.56;5513949;32;33789;-85
2022/04/07 10:08:48;;;;;;;10.48;7.03;;;;;;;16.78;45.03;98775.97;5516516;32;32959;-86
2022/04/07 10:11:52;;;;;;;17.60;7.62;;;;;;;17.20;45.72;98768.25;5524248;32;34392;-85
2022/04/07 10:14:55;;;;;;;9.30;7.30;;;;;;;17.54;44.59;98766.56;5523039;32;34016;-84
2022/04/07 10:18:04;;;;;;;14.15;7.78;;;;;;;17.51;42.75;98776.59;5538702;32;33963;-85
2022/04/07 10:21:17;;;;;;;9.07;7.47;;;;;;;17.10;43.73;98771.03;5512263;32;34549;-85
2022/04/07 10:24:46;;;;;;;9.88;7.45;;;;;;;17.76;42.64;98767.81;5523313;32;33868;-85
2022/04/07 10:28:07;;;;;;;10.02;7.75;;;;;;;18.68;40.59;98761.59;5527904;32;33907;-88
2022/04/07 10:31:30;;;;;;;9.18;7.50;;;;;;;17.93;42.11;98755.28;5608098;26;34169;-89
2022/04/07 10:42:09;;;;;;;12.95;8.38;;;;;;;17.52;43.39;98740.75;4175042;26;20103;-87
2022/04/07 10:45:12;;;;;;;12.45;8.05;;;;;;;17.43;43.99;98741.72;5529016;32;32937;-87
2022/04/07 10:48:26;;;;;;;10.60;8.20;;;;;;;18.03;43.96;98739.03;5550059;32;33849;-85
2022/04/07 10:51:45;;;;;;;12.13;8.52;;;;;;;19.92;40.32;98727.28;5538270;32;34176;-92
2022/04/07 10:55:11;;;;;;;10.20;8.30;;;;;;;20.40;37.70;98729.84;5537761;32;33718;-90
2022/04/07 10:58:18;;;;;;;13.60;7.68;;;;;;;20.83;35.92;98715.78;5541474;32;34019;-89
2022/04/07 11:01:30;;;;;;;13.95;8.20;;;;;;;20.85;36.53;98711.13;5530413;32;34041;-88
2022/04/07 11:04:38;;;;;;;14.02;8.73;;;;;;;20.16;36.96;98707.47;5531852;32;32538;-89
2022/04/07 11:07:54;;;;;;;11.63;8.48;;;;;;;19.77;38.53;98695.75;5542358;32;34144;-91
2022/04/07 11:10:57;;;;;;;13.65;8.13;;;;;;;18.76;39.61;98701.66;5565840;32;35206;-89
2022/04/07 11:13:59;;;;;;;10.18;8.23;;;;;;;18.71;39.76;98704.84;5543191;32;35009;-87
2022/04/07 11:17:08;;;;;;;11.40;7.75;;;;;;;18.80;39.15;98703.00;5560372;26;33914;-87
2022/04/07 11:20:15;;;;;;;11.30;7.57;;;;;;;19.46;38.15;98695.78;5541613;32;35710;-87
2022/04/07 11:23:40;;;;;;;10.45;8.15;;;;;;;19.80;38.17;98694.56;5561768;31;33634;-86
2022/04/07 11:26:43;;;;;;;9.98;8.27;;;;;;;21.21;35.06;98697.91;5549774;32;33903;-86
2022/04/07 11:30:05;;;;;;;12.27;8.60;;;;;;;20.73;35.91;98699.09;5544665;32;34659;-87
2022/04/07 11:33:26;;;;;;;11.77;8.13;;;;;;;20.35;35.49;98691.03;5522833;32;32525;-86
2022/04/07 11:36:33;;;;;;;9.65;6.80;;;;;;;19.57;37.14;98687.31;5533710;32;34561;-90
2022/04/07 11:39:40;;;;;;;11.20;7.50;;;;;;;20.03;37.76;98686.56;5539501;32;32699;-86
2022/04/07 11:42:49;;;;;;;10.77;7.45;;;;;;;20.49;36.59;98681.28;5536818;32;34180;-85
2022/04/07 11:45:52;;;;;;;9.68;6.78;;;;;;;19.80;37.06;98686.50;5542787;32;34178;-87
2022/04/07 11:49:16;;;;;;;13.30;6.97;;;;;;;19.23;37.93;98688.47;5536759;31;33689;-88
2022/04/07 11:52:24;;;;;;;9.57;7.20;;;;;;;19.42;37.36;98670.25;5539189;32;33741;-90
2022/04/07 11:55:27;;;;;;;8.55;6.55;;;;;;;19.37;37.58;98668.09;5547574;32;34330;-90
2022/04/07 11:58:30;;;;;;;11.05;7.65;;;;;;;19.85;36.90;98665.28;5547904;32;33942;-85
2022/04/07 12:01:41;;;;;;;9.93;6.90;;;;;;;19.30;38.17;98656.38;5549921;32;33682;-89
2022/04/07 12:04:44;;;;;;;11.27;6.35;;;;;;;19.40;37.88;98648.91;5548253;32;33838;-88
2022/04/07 12:07:46;;;;;;;9.15;6.70;;;;;;;19.72;37.33;98651.59;5547459;32;34526;-88
2022/04/07 12:10:50;;;;;;;11.30;6.95;;;;;;;19.51;36.79;98648.50;5542895;32;33946;-87
2022/04/07 12:13:55;;;;;;;7.57;6.72;;;;;;;19.17;37.40;98646.16;5528586;32;33279;-87
2022/04/07 12:16:58;;;;;;;7.18;6.22;;;;;;;19.01;39.08;98641.66;5544741;32;34338;-87
2022/04/07 12:20:01;;;;;;;7.78;6.37;;;;;;;19.75;37.73;98644.00;5536732;32;32433;-87
2022/04/07 12:23:07;;;;;;;5.93;5.20;;;;;;;20.43;35.96;98637.09;5554285;32;33961;-87
2022/04/07 12:26:10;;;;;;;12.15;5.68;;;;;;;19.03;36.09;98635.13;5547993;32;35716;-87
2022/04/07 12:29:25;;;;;;;6.43;5.53;;;;;;;18.64;37.74;98617.94;5533973;32;34142;-87
2022/04/07 12:32:43;;;;;;;8.63;5.72;;;;;;;19.01;37.31;98631.72;5546904;32;34055;-87
2022/04/07 12:35:49;;;;;;;7.78;6.18;;;;;;;18.74;37.51;98627.66;5539935;32;32560;-87
2022/04/07 12:39:02;;;;;;;7.57;5.25;;;;;;;18.28;37.91;98621.87;5551384;32;33703;-87
2022/04/07 12:42:08;;;;;;;11.00;5.50;;;;;;;18.31;38.05;98615.31;5560168;32;34384;-91
2022/04/07 12:45:11;;;;;;;8.23;6.12;;;;;;;18.60;37.19;98611.22;5525486;32;32245;-88
2022/04/07 12:48:14;;;;;;;7.57;6.35;;;;;;;18.71;37.47;98607.34;5525669;32;32377;-88
2022/04/07 12:51:42;;;;;;;8.02;6.35;;;;;;;19.22;36.46;98616.91;5536027;32;34336;-87
2022/04/07 12:54:56;;;;;;;17.25;6.93;;;;;;;19.15;36.98;98614.06;5537609;32;33137;-87
2022/04/07 12:57:59;;;;;;;11.40;7.10;;;;;;;18.77;36.78;98608.50;5529038;32;32452;-89
2022/04/07 13:01:06;;;;;;;8.07;6.37;;;;;;;18.82;37.57;98604.28;5537768;32;34384;-91
2022/04/07 13:04:09;;;;;;;8.70;6.30;;;;;;;18.92;36.81;98598.72;5549955;26;34034;-89
2022/04/07 13:07:12;;;;;;;9.52;6.60;;;;;;;18.46;38.01;98591.31;5530297;32;34701;-90
2022/04/07 13:10:14;;;;;;;9.32;6.32;;;;;;;18.68;37.47;98588.88;5514540;32;32479;-90
2022/04/07 13:13:17;;;;;;;13.85;7.78;;;;;;;18.64;37.47;98576.81;5531038;32;34731;-89
2022/04/07 13:16:20;;;;;;;7.80;6.15;;;;;;;18.73;37.74;98581.16;5539596;26;34703;-89
2022/04/07 13:19:23;;;;;;;9.20;6.70;;;;;;;18.98;38.13;98581.91;5516204;32;32756;-88
2022/04/07 13:22:26;;;;;;;11.88;6.37;;;;;;;19.37;37.66;98582.87;5530709;32;34952;-90
2022/04/07 13:29:20;;;;;;;7.90;5.93;;;;;;;19.95;35.20;98583.50;921561;26;20359;-88
2022/04/07 13:32:24;;;;;;;10.60;6.07;;;;;;;20.02;35.79;98582.59;5499428;32;31273;-89
2022/04/07 13:43:00;;;;;;;10.80;6.18;;;;;;;19.60;35.98;98562.38;1756677;26;20444;-90
2022/04/07 13:46:03;;;;;;;7.80;6.45;;;;;;;19.66;36.70;98562.50;5583503;26;33813;-90
2022/04/07 13:49:06;;;;;;;8.82;6.18;;;;;;;20.03;35.75;98560.06;5534767;32;35116;-89
2022/04/07 13:52:10;;;;;;;9.75;6.68;;;;;;;19.69;36.23;98549.72;5534691;32;34691;-91
2022/04/07 13:55:14;;;;;;;8.85;6.05;;;;;;;19.45;36.14;98551.59;5520607;32;33661;-88
2022/04/07 13:58:17;;;;;;;10.35;6.20;;;;;;;19.86;36.09;98531.59;5529939;32;33900;-86
2022/04/07 14:01:21;;;;;;;10.75;6.10;;;;;;;19.70;36.33;98544.16;5531626;32;34851;-88
2022/04/07 14:04:24;;;;;;;8.13;5.62;;;;;;;19.39;37.57;98545.91;5533800;32;35189;-83
2022/04/07 14:07:27;;;;;;;7.70;5.40;;;;;;;19.89;36.05;98537.44;5532122;32;34265;-87
2022/04/07 14:10:31;;;;;;;8.80;5.43;;;;;;;20.13;35.54;98527.50;5518128;32;32457;-87
2022/04/07 14:13:33;;;;;;;7.18;5.78;;;;;;;20.20;35.71;98527.59;5519494;32;33250;-87
2022/04/07 14:16:36;;;;;;;6.28;5.28;;;;;;;19.97;35.57;98509.69;5532361;32;33826;-89
2022/04/07 14:19:39;;;;;;;6.10;5.18;;;;;;;19.99;35.51;98496.00;5531505;32;33669;-88
2022/04/07 14:22:44;;;;;;;6.18;5.50;;;;;;;20.03;35.33;98497.31;5519419;32;32716;-89
2022/04/07 14:25:47;;;;;;;7.90;5.47;;;;;;;19.52;36.50;98496.09;5532063;32;33991;-89
2022/04/07 14:28:57;;;;;;;8.93;5.68;;;;;;;19.38;36.74;98489.63;5532050;32;33960;-89
2022/04/07 14:32:00;;;;;;;6.15;4.68;;;;;;;19.74;36.13;98485.47;5537327;32;34312;-89
2022/04/07 14:35:04;;;;;;;8.85;5.90;;;;;;;19.60;36.83;98479.88;5537113;32;34443;-90
2022/04/07 14:38:09;;;;;;;10.50;5.75;;;;;;;19.16;37.40;98478.69;5576468;26;32147;-88
2022/04/07 14:41:13;;;;;;;9.57;5.57;;;;;;;19.12;37.79;98490.84;5530113;32;34032;-88
2022/04/07 14:44:15;;;;;;;5.93;4.68;;;;;;;19.37;37.94;98483.41;5597728;26;33246;-89
2022/04/07 14:47:19;;;;;;;5.85;4.72;;;;;;;19.74;37.44;98472.00;5531356;32;34756;-89
2022/04/07 14:50:25;;;;;;;5.00;4.55;;;;;;;19.42;37.65;98474.81;5523636;32;32748;-89
2022/04/07 14:53:28;;;;;;;6.45;4.80;;;;;;;18.85;39.07;98469.63;5529121;32;32485;-88
2022/04/07 14:56:32;;;;;;;4.87;4.47;;;;;;;18.82;39.00;98461.91;5534512;32;32538;-89
2022/04/07 14:59:36;;;;;;;6.93;4.35;;;;;;;18.76;39.64;98453.75;5519312;32;35126;-91
2022/04/07 15:02:39;;;;;;;5.95;5.00;;;;;;;18.77;40.25;98450.03;5510697;32;32815;-92
2022/04/07 15:05:57;;;;;;;7.35;4.78;;;;;;;18.25;41.14;98436.22;5541347;26;34251;31
2022/04/07 15:09:00;;;;;;;7.55;4.53;;;;;;;18.53;40.59;98438.41;5510852;32;33758;-89
2022/04/07 15:12:04;;;;;;;6.93;4.70;;;;;;;18.60;40.82;98436.69;5520236;32;33986;-89
2022/04/07 15:15:10;;;;;;;5.32;4.53;;;;;;;18.53;40.89;98447.31;5567528;26;33198;-89
